Time;durP1;ratioP1;P1;durP2;ratioP2;P2;SDS_P1;SDS_P2;PMS_P1;PMS_P2;Temp;Humidity;BMP_temperature;BMP_pressure;BME280_temperature;BME280_humidity;BME280_pressure;Samples;Min_cycle;Max_cycle;Signal;HPM_P1;HPM_P2
2023/06/08 00:02:13;;;;;;;1.70;1.60;;;24.40;54.90;;;;;;222232;1268;24206;-53
2023/06/08 00:07:18;;;;;;;1.80;1.70;;;24.40;54.50;;;;;;222538;1268;24327;-51
2023/06/08 00:12:22;;;;;;;1.70;1.60;;;24.40;54.40;;;;;;222517;1268;25263;-53
2023/06/08 00:17:27;;;;;;;1.60;1.50;;;24.40;54.50;;;;;;222572;1268;22545;-53
2023/06/08 00:22:36;;;;;;;2.00;1.80;;;24.40;54.80;;;;;;222385;1268;25328;-52
2023/06/08 00:27:41;;;;;;;1.50;1.40;;;24.40;54.60;;;;;;222421;1268;23674;-55
2023/06/08 00:32:45;;;;;;;1.80;1.70;;;24.30;54.50;;;;;;222628;1268;22512;-54
2023/06/08 00:37:50;;;;;;;1.80;1.70;;;24.40;55.00;;;;;;222612;1268;22622;-56
2023/06/08 00:42:54;;;;;;;1.70;1.60;;;24.30;54.50;;;;;;222581;1268;22537;-53
2023/06/08 00:47:58;;;;;;;1.60;1.50;;;24.30;54.60;;;;;;222449;1268;22597;-54
2023/06/08 00:53:03;;;;;;;1.40;1.40;;;24.30;54.40;;;;;;222521;1268;22620;-53
2023/06/08 00:58:13;;;;;;;1.70;1.60;;;24.30;54.50;;;;;;222578;1268;22772;-52
2023/06/08 01:03:19;;;;;;;1.80;1.70;;;24.30;54.60;;;;;;222437;1268;22571;-53
2023/06/08 01:09:00;;;;;;;1.90;1.80;;;24.30;54.80;;;;;;222389;1268;22514;-57
2023/06/08 01:14:17;;;;;;;1.70;1.60;;;24.30;55.00;;;;;;221916;1268;24365;-51
2023/06/08 01:19:47;;;;;;;1.50;1.40;;;24.30;54.40;;;;;;222670;1268;25375;-54
2023/06/08 01:24:59;;;;;;;1.40;1.30;;;24.30;54.40;;;;;;222775;1266;22511;-53
2023/06/08 01:30:06;;;;;;;1.70;1.60;;;24.30;54.80;;;;;;222394;1245;23886;-54
2023/06/08 01:35:12;;;;;;;1.50;1.40;;;24.30;54.50;;;;;;222612;1268;22623;-53
2023/06/08 01:40:26;;;;;;;1.50;1.40;;;24.20;54.80;;;;;;222337;1268;22516;-50
2023/06/08 01:45:35;;;;;;;1.60;1.50;;;24.20;54.80;;;;;;222602;1268;24122;-52
2023/06/08 01:50:41;;;;;;;1.70;1.60;;;24.20;54.50;;;;;;222389;1268;22652;-54
2023/06/08 01:55:49;;;;;;;1.50;1.40;;;24.20;54.30;;;;;;222835;1268;26624;-53
2023/06/08 02:00:54;;;;;;;1.80;1.70;;;24.20;54.40;;;;;;222540;1268;25221;-54
2023/06/08 02:05:58;;;;;;;1.90;1.80;;;24.30;54.50;;;;;;222638;1268;22515;-49
2023/06/08 02:11:03;;;;;;;1.90;1.80;;;24.30;54.30;;;;;;222416;1268;269628;-50
2023/06/08 02:16:08;;;;;;;2.40;2.20;;;24.20;54.30;;;;;;222445;1268;24206;-50
2023/06/08 02:21:12;;;;;;;1.60;1.50;;;24.20;54.30;;;;;;222531;1268;23925;-56
2023/06/08 02:26:19;;;;;;;1.30;1.30;;;24.20;54.20;;;;;;222425;1268;22482;-53
2023/06/08 02:31:26;;;;;;;1.70;1.60;;;24.30;53.90;;;;;;222607;1255;25368;-55
2023/06/08 02:36:31;;;;;;;1.70;1.60;;;24.30;54.00;;;;;;222440;1264;22561;-57
2023/06/08 02:41:37;;;;;;;1.80;1.70;;;24.30;54.20;;;;;;222337;1268;22522;-54
2023/06/08 02:46:42;;;;;;;1.70;1.60;;;24.30;53.90;;;;;;222355;1268;24363;-58
2023/06/08 02:51:47;;;;;;;1.50;1.40;;;24.30;54.00;;;;;;222524;1267;22536;-52
2023/06/08 02:56:51;;;;;;;1.70;1.60;;;24.30;53.80;;;;;;222566;1268;22508;-54
2023/06/08 03:01:56;;;;;;;1.70;1.60;;;24.30;53.80;;;;;;222412;1268;22514;-52
2023/06/08 03:07:09;;;;;;;1.90;1.80;;;24.30;53.70;;;;;;222747;1266;22516;-55
2023/06/08 03:12:14;;;;;;;1.80;1.70;;;24.20;53.80;;;;;;222467;1266;22732;-58
2023/06/08 03:17:20;;;;;;;1.70;1.60;;;24.30;53.90;;;;;;222534;1268;22501;-55
2023/06/08 03:22:25;;;;;;;1.80;1.70;;;24.20;53.70;;;;;;222699;1268;22588;-56
2023/06/08 03:27:37;;;;;;;1.60;1.50;;;24.20;54.10;;;;;;222591;1268;22512;-52
2023/06/08 03:32:48;;;;;;;1.40;1.40;;;24.20;53.80;;;;;;222550;1268;22598;-57
2023/06/08 03:37:55;;;;;;;1.80;1.70;;;24.20;53.30;;;;;;222377;1267;22620;-54
2023/06/08 03:43:00;;;;;;;1.80;1.70;;;24.30;53.70;;;;;;222588;1268;22505;-53
2023/06/08 03:48:05;;;;;;;2.70;2.00;;;24.20;53.60;;;;;;222543;1268;22625;-51
2023/06/08 03:53:13;;;;;;;1.50;1.50;;;24.30;53.70;;;;;;222493;1268;22507;-53
2023/06/08 03:58:17;;;;;;;1.80;1.70;;;24.30;53.70;;;;;;222527;1268;24183;-53
2023/06/08 04:03:25;;;;;;;1.70;1.60;;;24.30;53.60;;;;;;222285;1268;22513;-56
2023/06/08 04:08:32;;;;;;;2.50;1.50;;;24.30;53.70;;;;;;222387;1268;24184;-54
2023/06/08 04:13:41;;;;;;;1.70;1.60;;;24.30;53.70;;;;;;222722;1264;24199;-56
2023/06/08 04:18:47;;;;;;;1.80;1.70;;;24.30;53.60;;;;;;222440;1268;25500;-51
2023/06/08 04:23:53;;;;;;;1.80;1.70;;;24.30;53.70;;;;;;222439;1268;22570;-57
2023/06/08 04:29:03;;;;;;;2.00;1.90;;;24.30;54.00;;;;;;222403;1268;22961;-51
2023/06/08 04:34:10;;;;;;;1.60;1.50;;;24.20;54.00;;;;;;222540;1245;24238;-52
2023/06/08 04:39:15;;;;;;;1.90;1.80;;;24.30;53.60;;;;;;222687;1268;24183;-53
2023/06/08 04:44:21;;;;;;;1.70;1.60;;;24.30;53.60;;;;;;222701;1267;24215;-53
2023/06/08 04:49:34;;;;;;;1.80;1.70;;;24.20;53.50;;;;;;222362;1264;25517;-53
2023/06/08 04:54:39;;;;;;;1.70;1.60;;;24.30;53.50;;;;;;222849;1266;22514;-54
2023/06/08 04:59:44;;;;;;;1.90;1.80;;;24.30;53.90;;;;;;222584;1268;22518;-58
2023/06/08 05:04:48;;;;;;;1.60;1.50;;;24.20;53.70;;;;;;222454;1268;26612;-52
2023/06/08 05:09:52;;;;;;;1.80;1.70;;;24.20;53.60;;;;;;222456;1267;22680;-57
2023/06/08 05:14:59;;;;;;;1.60;1.50;;;24.20;53.70;;;;;;222580;1268;22567;-53
2023/06/08 05:20:04;;;;;;;1.80;1.70;;;24.10;54.00;;;;;;222512;1268;22521;-54
2023/06/08 05:25:09;;;;;;;2.90;2.00;;;24.20;54.10;;;;;;222498;1263;22514;-53
2023/06/08 05:30:14;;;;;;;1.60;1.50;;;24.20;54.10;;;;;;222544;1268;23178;-53
2023/06/08 05:35:18;;;;;;;1.90;1.80;;;24.20;53.80;;;;;;222504;1263;26740;-50
2023/06/08 05:40:24;;;;;;;1.90;1.80;;;24.20;53.80;;;;;;222614;1267;22742;-55
2023/06/08 05:45:28;;;;;;;2.00;1.90;;;24.10;53.70;;;;;;222568;1257;22521;-54
2023/06/08 05:50:32;;;;;;;2.10;2.00;;;24.20;53.90;;;;;;222574;1268;25373;-53
2023/06/08 05:55:36;;;;;;;1.80;1.70;;;24.20;54.00;;;;;;222233;1268;22501;-53
2023/06/08 06:00:40;;;;;;;1.60;1.50;;;24.10;53.80;;;;;;222251;1267;22598;-53
2023/06/08 06:05:45;;;;;;;1.80;1.70;;;24.10;53.80;;;;;;222466;1260;22501;-55
2023/06/08 06:10:49;;;;;;;2.00;1.90;;;24.20;53.80;;;;;;222499;1268;22513;-53
2023/06/08 06:15:53;;;;;;;2.20;2.00;;;24.20;53.70;;;;;;222446;1268;22522;-54
2023/06/08 06:20:58;;;;;;;1.80;1.70;;;24.30;53.70;;;;;;222477;1268;22507;-54
2023/06/08 06:26:03;;;;;;;1.90;1.80;;;24.30;53.70;;;;;;222684;1268;23342;-59
2023/06/08 06:31:07;;;;;;;2.10;1.80;;;24.30;53.60;;;;;;222746;1260;22667;-55
2023/06/08 06:36:11;;;;;;;1.80;1.70;;;24.30;53.70;;;;;;222492;1268;22566;-54
2023/06/08 06:41:16;;;;;;;1.90;1.80;;;24.30;53.50;;;;;;222877;1268;22571;-56
2023/06/08 06:46:21;;;;;;;1.90;1.80;;;24.40;53.40;;;;;;222467;1268;22602;-53
2023/06/08 06:51:26;;;;;;;1.90;1.80;;;24.40;53.50;;;;;;222384;1268;24723;-55
2023/06/08 06:56:31;;;;;;;1.90;1.80;;;24.40;53.20;;;;;;222491;1256;24251;-54
2023/06/08 07:01:36;;;;;;;2.10;2.00;;;24.50;53.20;;;;;;222308;1264;22787;-55
2023/06/08 07:06:42;;;;;;;2.30;2.00;;;24.50;53.20;;;;;;222398;1269;24357;-55
2023/06/08 07:11:48;;;;;;;1.80;1.70;;;24.50;53.10;;;;;;222899;1264;22528;-53
2023/06/08 07:17:11;;;;;;;1.80;1.70;;;24.50;53.10;;;;;;222882;1268;22618;-54
2023/06/08 07:22:15;;;;;;;1.90;1.80;;;24.50;53.10;;;;;;222641;1268;24338;-55
2023/06/08 07:27:32;;;;;;;2.20;2.10;;;24.60;53.10;;;;;;222535;1268;22514;-56
2023/06/08 07:32:36;;;;;;;1.90;1.80;;;24.50;53.10;;;;;;222572;1264;22528;-51
2023/06/08 07:37:41;;;;;;;1.80;1.70;;;24.50;53.10;;;;;;222523;1268;24234;-55
2023/06/08 07:42:46;;;;;;;1.90;1.80;;;24.50;53.20;;;;;;222755;1262;24224;-51
2023/06/08 07:47:50;;;;;;;1.90;1.80;;;24.50;53.20;;;;;;222544;1264;22529;-50
2023/06/08 07:52:54;;;;;;;2.30;2.20;;;24.60;53.50;;;;;;222474;1264;25275;-56
2023/06/08 07:57:58;;;;;;;1.70;1.60;;;24.60;53.30;;;;;;222335;1267;24179;-54
2023/06/08 08:03:03;;;;;;;2.10;2.00;;;24.60;53.20;;;;;;222459;1269;22691;-55
2023/06/08 08:08:08;;;;;;;2.10;2.00;;;24.70;53.50;;;;;;222580;1263;25514;-54
2023/06/08 08:13:12;;;;;;;2.00;1.90;;;24.70;53.70;;;;;;222456;1268;24217;-55
2023/06/08 08:18:16;;;;;;;2.00;1.90;;;24.70;53.10;;;;;;222540;1268;22588;-52
2023/06/08 08:23:20;;;;;;;1.80;1.70;;;24.70;53.10;;;;;;222625;1268;24403;-51
2023/06/08 08:28:24;;;;;;;2.10;2.00;;;24.70;53.00;;;;;;222561;1268;22508;-56
2023/06/08 08:33:28;;;;;;;2.00;1.90;;;24.80;53.00;;;;;;222370;1267;22563;-50
2023/06/08 08:38:32;;;;;;;1.80;1.70;;;24.70;53.10;;;;;;222374;1269;22616;-52
2023/06/08 08:43:44;;;;;;;1.70;1.60;;;24.70;53.50;;;;;;222421;1269;23877;-53
2023/06/08 08:48:53;;;;;;;2.10;1.90;;;24.80;53.10;;;;;;222391;1269;22521;-52
2023/06/08 08:54:00;;;;;;;1.80;1.70;;;24.80;52.50;;;;;;222377;1264;22527;-53
2023/06/08 08:59:05;;;;;;;2.20;2.00;;;24.90;53.00;;;;;;222404;1267;22628;-53
2023/06/08 09:04:09;;;;;;;1.80;1.70;;;24.90;53.30;;;;;;222701;1268;24183;-52
2023/06/08 09:09:13;;;;;;;1.80;1.70;;;24.90;52.90;;;;;;222543;1268;22514;-58
2023/06/08 09:14:18;;;;;;;2.20;2.10;;;25.00;53.30;;;;;;222577;1268;22508;-57
2023/06/08 09:19:22;;;;;;;2.10;2.00;;;25.00;52.90;;;;;;222577;1268;22586;-55
2023/06/08 09:24:27;;;;;;;2.10;2.00;;;25.00;52.90;;;;;;222598;1268;22515;-53
2023/06/08 09:29:44;;;;;;;1.90;1.80;;;25.00;52.80;;;;;;222529;1268;22775;-53
2023/06/08 09:34:53;;;;;;;1.70;1.60;;;25.00;52.80;;;;;;222635;1256;22527;-50
2023/06/08 09:40:04;;;;;;;1.70;1.60;;;25.10;53.20;;;;;;222716;1268;23932;-55
2023/06/08 09:45:15;;;;;;;1.80;1.70;;;25.10;52.80;;;;;;222674;1259;25468;-52
2023/06/08 09:50:20;;;;;;;1.80;1.70;;;25.10;52.80;;;;;;222876;1268;22643;-54
2023/06/08 09:55:24;;;;;;;2.20;2.10;;;25.10;52.70;;;;;;222425;1268;22511;-55
2023/06/08 10:00:30;;;;;;;1.70;1.60;;;25.10;52.80;;;;;;222352;1270;24254;-55
2023/06/08 10:05:38;;;;;;;2.10;2.00;;;25.10;52.60;;;;;;222217;1270;22510;-53
2023/06/08 10:10:43;;;;;;;2.10;2.00;;;25.20;53.00;;;;;;222213;1267;22777;-55
2023/06/08 10:15:47;;;;;;;1.70;1.60;;;25.20;52.60;;;;;;222088;1270;23188;-55
2023/06/08 10:20:52;;;;;;;2.30;1.50;;;25.20;52.60;;;;;;222202;1267;24726;-52
2023/06/08 10:25:57;;;;;;;1.60;1.50;;;25.20;52.60;;;;;;222119;1270;22518;-56
2023/06/08 10:31:31;;;;;;;2.20;2.10;;;25.20;52.60;;;;;;222122;1265;22517;-54
2023/06/08 10:36:39;;;;;;;1.90;1.70;;;25.30;53.00;;;;;;222325;1270;22528;-52
2023/06/08 10:41:57;;;;;;;1.70;1.60;;;25.30;52.20;;;;;;222449;1249;22534;-56
2023/06/08 10:47:05;;;;;;;1.80;1.70;;;25.40;52.60;;;;;;222781;1265;22526;-52
2023/06/08 10:52:10;;;;;;;1.80;1.70;;;25.40;52.50;;;;;;223048;1256;22501;-50
2023/06/08 10:57:53;;;;;;;2.00;1.90;;;25.40;52.40;;;;;;223098;1269;25204;-51
2023/06/08 11:03:03;;;;;;;1.70;1.60;;;25.50;52.50;;;;;;222827;1267;22521;-55
2023/06/08 11:08:09;;;;;;;2.00;1.90;;;25.50;52.20;;;;;;222963;1269;22524;-51
2023/06/08 11:13:17;;;;;;;1.60;1.50;;;25.50;52.60;;;;;;222772;1269;22528;-54
2023/06/08 11:18:21;;;;;;;9.10;1.90;;;25.50;52.30;;;;;;222942;1269;22879;-51
2023/06/08 11:23:26;;;;;;;2.00;1.90;;;25.60;52.30;;;;;;223011;1269;22515;-53
2023/06/08 11:28:30;;;;;;;1.90;1.80;;;25.60;52.20;;;;;;222859;1269;22515;-53
2023/06/08 11:33:34;;;;;;;1.80;1.70;;;25.60;52.50;;;;;;222539;1268;22647;-54
2023/06/08 11:38:39;;;;;;;1.60;1.50;;;25.60;52.20;;;;;;222960;1262;24686;-54
2023/06/08 11:43:48;;;;;;;1.90;1.80;;;25.70;52.30;;;;;;222537;1268;22769;-54
2023/06/08 11:48:52;;;;;;;1.70;1.60;;;25.70;52.20;;;;;;222616;1268;24291;-51
2023/06/08 11:53:57;;;;;;;1.90;1.80;;;25.70;52.30;;;;;;222326;1268;24270;-54
2023/06/08 11:59:03;;;;;;;1.80;1.70;;;25.70;52.30;;;;;;222668;1263;22525;-54
2023/06/08 12:04:19;;;;;;;1.90;1.80;;;25.70;52.60;;;;;;222530;1268;24370;-52
2023/06/08 12:09:24;;;;;;;1.80;1.70;;;25.70;52.30;;;;;;222543;1264;24226;-54
2023/06/08 12:14:34;;;;;;;1.70;1.60;;;25.70;52.30;;;;;;222574;1262;23099;-57
2023/06/08 12:19:42;;;;;;;1.80;1.70;;;25.70;52.70;;;;;;222388;1265;22508;-55
2023/06/08 12:24:46;;;;;;;1.80;1.70;;;25.70;52.40;;;;;;222604;1268;22510;-55
2023/06/08 12:29:51;;;;;;;1.40;1.40;;;25.70;52.50;;;;;;222732;1265;22507;-55
2023/06/08 12:34:55;;;;;;;1.90;1.80;;;25.80;52.30;;;;;;222331;1268;22692;-53
2023/06/08 12:40:00;;;;;;;2.00;1.90;;;25.80;52.30;;;;;;222454;1268;22514;-54
2023/06/08 12:45:05;;;;;;;1.60;1.50;;;25.80;52.40;;;;;;222717;1267;25383;-57
2023/06/08 12:50:11;;;;;;;1.90;1.80;;;25.80;52.40;;;;;;222774;1262;22521;-51
2023/06/08 12:55:17;;;;;;;1.70;1.60;;;25.80;52.40;;;;;;222783;1268;23783;-55
2023/06/08 13:00:22;;;;;;;1.80;1.70;;;25.80;52.40;;;;;;222688;1263;24244;-56
2023/06/08 13:05:29;;;;;;;1.70;1.60;;;25.80;52.30;;;;;;222443;1268;22727;-55
2023/06/08 13:10:35;;;;;;;1.80;1.70;;;25.80;52.40;;;;;;222450;1268;22746;-54
2023/06/08 13:15:39;;;;;;;1.70;1.60;;;25.80;52.40;;;;;;222532;1268;25775;-57
2023/06/08 13:20:43;;;;;;;1.70;1.60;;;25.80;52.40;;;;;;222483;1268;22514;-54
2023/06/08 13:25:48;;;;;;;1.60;1.50;;;25.80;52.80;;;;;;222691;1268;22501;-54
2023/06/08 13:30:52;;;;;;;1.60;1.50;;;25.80;52.80;;;;;;222295;1268;24282;-54
2023/06/08 13:35:58;;;;;;;1.40;1.40;;;25.80;52.50;;;;;;222222;1268;25364;-55
2023/06/08 13:41:03;;;;;;;1.50;1.40;;;25.80;52.50;;;;;;222700;1268;22507;-55
2023/06/08 13:46:07;;;;;;;1.60;1.50;;;25.90;52.50;;;;;;222658;1263;22616;-56
2023/06/08 13:51:11;;;;;;;1.70;1.60;;;25.90;52.80;;;;;;222658;1265;25320;-55
2023/06/08 13:56:16;;;;;;;1.70;1.60;;;25.90;52.60;;;;;;222454;1268;22513;-56
2023/06/08 14:01:20;;;;;;;1.50;1.50;;;25.90;52.50;;;;;;222614;1267;22628;-53
2023/06/08 14:06:24;;;;;;;1.50;1.40;;;25.80;52.50;;;;;;222674;1267;22507;-54
2023/06/08 14:11:29;;;;;;;1.60;1.50;;;25.90;52.80;;;;;;222236;1261;242945;-54
2023/06/08 14:16:33;;;;;;;1.60;1.50;;;25.90;52.50;;;;;;222933;1265;22511;-53
2023/06/08 14:21:38;;;;;;;1.80;1.70;;;25.90;52.60;;;;;;222439;1268;22508;-58
2023/06/08 14:26:42;;;;;;;1.50;1.40;;;25.90;52.50;;;;;;222829;1268;22515;-54
2023/06/08 14:31:48;;;;;;;1.80;1.70;;;25.90;52.90;;;;;;222318;1268;25715;-53
2023/06/08 14:36:52;;;;;;;1.70;1.60;;;25.90;52.50;;;;;;222759;1268;25262;-56
2023/06/08 14:41:56;;;;;;;1.70;1.60;;;25.90;52.70;;;;;;222404;1268;23146;-54
2023/06/08 14:47:01;;;;;;;1.60;1.50;;;25.90;52.70;;;;;;222400;1268;22564;-51
2023/06/08 14:52:06;;;;;;;2.00;1.90;;;25.90;52.70;;;;;;222561;1268;22523;-51
2023/06/08 14:57:11;;;;;;;1.80;1.70;;;25.90;52.70;;;;;;222633;1268;22510;-56
2023/06/08 15:02:15;;;;;;;1.60;1.50;;;25.90;52.60;;;;;;222523;1268;24264;-55
2023/06/08 15:07:20;;;;;;;1.90;1.50;;;25.90;52.60;;;;;;222644;1268;25252;-52
2023/06/08 15:12:25;;;;;;;1.60;1.50;;;25.90;52.60;;;;;;222339;1268;22621;-55
2023/06/08 15:17:29;;;;;;;1.50;1.40;;;25.90;52.80;;;;;;222576;1268;22651;-54
2023/06/08 15:22:34;;;;;;;1.30;1.30;;;25.90;52.80;;;;;;222652;1267;24334;-54
2023/06/08 15:27:38;;;;;;;1.60;1.50;;;25.90;52.80;;;;;;222722;1268;22524;-55
2023/06/08 15:32:43;;;;;;;1.60;1.50;;;25.90;53.20;;;;;;222557;1252;24170;-57
2023/06/08 15:37:47;;;;;;;1.70;1.60;;;25.90;52.80;;;;;;222560;1268;22508;-54
2023/06/08 15:42:51;;;;;;;1.50;1.40;;;25.90;52.80;;;;;;222453;1268;22627;-56
2023/06/08 15:47:55;;;;;;;1.70;1.60;;;25.90;53.10;;;;;;222363;1268;22568;-55
2023/06/08 15:52:59;;;;;;;1.70;1.60;;;25.90;52.80;;;;;;222264;1268;24233;-54
2023/06/08 15:58:07;;;;;;;1.50;1.40;;;25.90;52.90;;;;;;222597;1268;22530;-53
2023/06/08 16:03:11;;;;;;;1.60;1.50;;;25.90;53.30;;;;;;222650;1265;24193;-50
2023/06/08 16:08:19;;;;;;;1.40;1.30;;;25.80;52.80;;;;;;222457;1268;22511;-55
2023/06/08 16:13:24;;;;;;;1.70;1.60;;;25.90;53.20;;;;;;222738;1268;24464;-51
2023/06/08 16:18:28;;;;;;;1.60;1.50;;;25.90;52.80;;;;;;222656;1266;22778;-54
2023/06/08 16:23:33;;;;;;;1.30;1.30;;;25.90;53.00;;;;;;222357;1268;22519;-54
2023/06/08 16:28:37;;;;;;;1.20;1.20;;;25.80;52.80;;;;;;222370;1268;24216;-53
2023/06/08 16:33:42;;;;;;;1.50;1.40;;;25.90;52.90;;;;;;222298;1268;25520;-52
2023/06/08 16:38:46;;;;;;;1.80;1.70;;;25.90;52.90;;;;;;222331;1268;24068;-54
2023/06/08 16:43:50;;;;;;;1.40;1.40;;;25.80;53.00;;;;;;222399;1268;22508;-57
2023/06/08 16:48:55;;;;;;;1.50;1.40;;;25.90;52.90;;;;;;222689;1268;24170;-57
2023/06/08 16:54:02;;;;;;;1.40;1.30;;;25.90;52.90;;;;;;222606;1267;22577;-55
2023/06/08 16:59:07;;;;;;;1.30;1.30;;;25.80;53.30;;;;;;222443;1268;25210;-57
2023/06/08 17:04:11;;;;;;;1.30;1.20;;;25.80;53.00;;;;;;222566;1268;24305;-56
2023/06/08 17:09:15;;;;;;;1.90;1.80;;;25.80;52.90;;;;;;222619;1268;24184;-56
2023/06/08 17:14:20;;;;;;;1.50;1.50;;;25.80;53.00;;;;;;222379;1268;25242;-51
2023/06/08 17:19:24;;;;;;;1.60;1.50;;;25.80;53.10;;;;;;222611;1268;22511;-57
2023/06/08 17:24:31;;;;;;;1.50;1.40;;;25.80;53.10;;;;;;222622;1268;22518;-54
2023/06/08 17:29:36;;;;;;;1.80;1.70;;;25.80;53.00;;;;;;222319;1268;24173;-54
2023/06/08 17:34:40;;;;;;;1.70;1.60;;;25.80;53.00;;;;;;222449;1268;25269;-55
2023/06/08 17:39:44;;;;;;;1.60;1.50;;;25.80;52.90;;;;;;222324;1268;22529;-56
2023/06/08 17:44:48;;;;;;;1.60;1.50;;;25.80;52.90;;;;;;222487;1268;22629;-54
2023/06/08 17:49:53;;;;;;;1.70;1.60;;;25.80;52.90;;;;;;222395;1268;22598;-55
2023/06/08 17:54:57;;;;;;;1.60;1.50;;;25.80;52.90;;;;;;222602;1268;25208;-52
2023/06/08 18:00:01;;;;;;;1.30;1.30;;;25.80;53.10;;;;;;222117;1269;25249;-55
2023/06/08 18:05:07;;;;;;;1.70;1.60;;;25.80;53.20;;;;;;222473;1268;24214;-55
2023/06/08 18:10:13;;;;;;;1.50;1.40;;;25.70;53.00;;;;;;222881;1268;22601;-52
2023/06/08 18:15:17;;;;;;;1.50;1.40;;;25.70;53.10;;;;;;222605;1268;22518;-55
2023/06/08 18:20:22;;;;;;;1.50;1.40;;;25.70;53.00;;;;;;222679;1268;26561;-54
2023/06/08 18:25:26;;;;;;;1.30;1.30;;;25.70;53.00;;;;;;222451;1268;22564;-52
2023/06/08 18:30:31;;;;;;;1.40;1.40;;;25.70;53.10;;;;;;222804;1263;24429;-56
2023/06/08 18:35:35;;;;;;;1.50;1.40;;;25.70;53.10;;;;;;222443;1267;22521;-57
2023/06/08 18:40:40;;;;;;;1.50;1.40;;;25.70;53.80;;;;;;222640;1268;25559;-55
2023/06/08 18:45:44;;;;;;;1.30;1.30;;;25.70;53.10;;;;;;222716;1266;25387;-56
2023/06/08 18:50:48;;;;;;;1.70;1.60;;;25.70;53.20;;;;;;222573;1268;24238;-55
2023/06/08 18:55:52;;;;;;;1.30;1.30;;;25.70;53.10;;;;;;222365;1268;22521;-53
2023/06/08 19:00:56;;;;;;;1.70;1.60;;;25.70;53.70;;;;;;222592;1268;24289;-58
2023/06/08 19:06:02;;;;;;;1.70;1.60;;;25.70;53.10;;;;;;222572;1268;23001;-53
2023/06/08 19:11:06;;;;;;;1.50;1.40;;;25.70;52.90;;;;;;222703;1266;22515;-56
2023/06/08 19:16:11;;;;;;;1.50;1.50;;;25.70;52.90;;;;;;222704;1268;22517;-54
2023/06/08 19:21:15;;;;;;;1.40;1.40;;;25.60;53.00;;;;;;222607;1267;22511;-54
2023/06/08 19:26:20;;;;;;;1.40;1.30;;;25.60;53.40;;;;;;222442;1268;22520;-55
2023/06/08 19:31:24;;;;;;;1.70;1.60;;;25.60;53.20;;;;;;222511;1265;22623;-54
2023/06/08 19:36:29;;;;;;;1.50;1.40;;;25.60;53.60;;;;;;222113;1269;22613;-49
2023/06/08 19:41:33;;;;;;;1.50;1.40;;;25.50;53.50;;;;;;222078;1269;22639;-52
2023/06/08 19:46:41;;;;;;;1.70;1.60;;;25.60;53.30;;;;;;222217;1269;23925;-55
2023/06/08 19:51:46;;;;;;;1.80;1.70;;;25.50;53.20;;;;;;222144;1269;22802;-51
2023/06/08 19:56:51;;;;;;;1.70;1.60;;;25.50;53.30;;;;;;222360;1269;22534;-53
2023/06/08 20:01:55;;;;;;;1.70;1.60;;;25.50;53.30;;;;;;222047;1269;22601;-54
2023/06/08 20:07:02;;;;;;;3.40;2.20;;;25.50;53.30;;;;;;222111;1269;25255;-55
2023/06/08 20:12:07;;;;;;;1.60;1.50;;;25.50;53.30;;;;;;222226;1269;25233;-55
2023/06/08 20:17:11;;;;;;;2.00;1.80;;;25.50;53.40;;;;;;222143;1269;22627;-57
2023/06/08 20:22:16;;;;;;;1.60;1.50;;;25.50;52.90;;;;;;222290;1269;22809;-58
2023/06/08 20:27:20;;;;;;;1.70;1.60;;;25.50;53.30;;;;;;222177;1256;24160;-54
2023/06/08 20:32:24;;;;;;;1.30;1.20;;;25.50;53.30;;;;;;222457;1268;22708;-54
2023/06/08 20:37:29;;;;;;;1.40;1.40;;;25.50;53.70;;;;;;222621;1268;22633;-53
2023/06/08 20:42:34;;;;;;;1.90;1.80;;;25.50;53.30;;;;;;222576;1266;23306;-53
2023/06/08 20:47:38;;;;;;;1.80;1.70;;;25.50;53.40;;;;;;222580;1268;22508;-53
2023/06/08 20:52:42;;;;;;;1.80;1.70;;;25.40;53.70;;;;;;222333;1268;24215;-56
2023/06/08 20:57:47;;;;;;;1.70;1.60;;;25.40;53.30;;;;;;222509;1268;22517;-56
2023/06/08 21:02:52;;;;;;;1.70;1.60;;;25.40;52.80;;;;;;222555;1256;22514;-54
2023/06/08 21:07:57;;;;;;;1.40;1.40;;;25.40;53.80;;;;;;222739;1266;25220;-55
2023/06/08 21:13:03;;;;;;;1.70;1.60;;;25.40;53.40;;;;;;222732;1269;22537;-55
2023/06/08 21:18:07;;;;;;;1.50;1.50;;;25.40;53.90;;;;;;222678;1268;24103;-53
2023/06/08 21:23:12;;;;;;;1.60;1.60;;;25.50;53.60;;;;;;222689;1266;24171;-60
2023/06/08 21:28:17;;;;;;;1.70;1.60;;;25.40;53.50;;;;;;222502;1268;24186;-54
2023/06/08 21:33:22;;;;;;;1.80;1.70;;;25.40;53.60;;;;;;222536;1268;22508;-53
2023/06/08 21:38:26;;;;;;;1.60;1.50;;;25.40;53.60;;;;;;222512;1268;24005;-53
2023/06/08 21:43:31;;;;;;;1.80;1.70;;;25.40;53.50;;;;;;222686;1268;22518;-55
2023/06/08 21:48:35;;;;;;;2.10;2.00;;;25.40;53.60;;;;;;222527;1269;22518;-54
2023/06/08 21:53:39;;;;;;;1.60;1.50;;;25.40;54.00;;;;;;222545;1268;24231;-54
2023/06/08 21:58:44;;;;;;;2.00;1.90;;;25.40;53.60;;;;;;222582;1268;22521;-52
2023/06/08 22:03:48;;;;;;;1.90;1.80;;;25.40;53.60;;;;;;222686;1268;22613;-53
2023/06/08 22:08:52;;;;;;;1.90;1.80;;;25.40;53.60;;;;;;222569;1268;22561;-58
2023/06/08 22:13:57;;;;;;;1.90;1.80;;;25.40;53.70;;;;;;222498;1268;22776;-54
2023/06/08 22:19:02;;;;;;;1.70;1.60;;;25.40;53.60;;;;;;222654;1268;24379;-52
2023/06/08 22:24:06;;;;;;;1.60;1.50;;;25.30;53.60;;;;;;222646;1266;22515;-55
2023/06/08 22:29:10;;;;;;;1.60;1.50;;;25.30;53.70;;;;;;222887;1268;22501;-55
2023/06/08 22:34:14;;;;;;;1.70;1.40;;;25.30;53.60;;;;;;222421;1268;23941;-52
2023/06/08 22:39:18;;;;;;;1.60;1.50;;;25.30;53.70;;;;;;222169;1268;22518;-57
2023/06/08 22:44:22;;;;;;;1.70;1.60;;;25.30;53.70;;;;;;222346;1268;24314;-55
2023/06/08 22:49:28;;;;;;;1.90;1.80;;;25.30;53.80;;;;;;222560;1268;24288;-56
2023/06/08 22:54:32;;;;;;;1.60;1.50;;;25.40;53.80;;;;;;222524;1266;22514;-52
2023/06/08 22:59:36;;;;;;;1.70;1.60;;;25.30;53.80;;;;;;222162;1268;22535;-52
2023/06/08 23:04:45;;;;;;;2.00;1.90;;;25.20;53.80;;;;;;222499;1267;22772;-53
2023/06/08 23:09:52;;;;;;;1.60;1.50;;;25.20;53.90;;;;;;222422;1268;25275;-58
2023/06/08 23:14:56;;;;;;;1.70;1.60;;;25.20;53.90;;;;;;222386;1268;23891;-52
2023/06/08 23:20:01;;;;;;;1.60;1.50;;;25.20;54.00;;;;;;222541;1253;24184;-57
2023/06/08 23:25:06;;;;;;;1.80;1.70;;;25.20;54.00;;;;;;222431;1268;22640;-55
2023/06/08 23:30:11;;;;;;;2.00;1.90;;;25.20;54.30;;;;;;222488;1268;22510;-56
2023/06/08 23:35:15;;;;;;;2.00;1.90;;;25.20;54.30;;;;;;222523;1252;24333;-53
2023/06/08 23:40:20;;;;;;;1.90;1.80;;;25.10;53.90;;;;;;222524;1266;24196;-54
2023/06/08 23:45:24;;;;;;;2.20;2.10;;;25.10;54.00;;;;;;222603;1268;24183;-53
2023/06/08 23:50:28;;;;;;;1.70;1.60;;;25.10;54.00;;;;;;222500;1266;22550;-55
2023/06/08 23:55:32;;;;;;;1.80;1.70;;;25.10;54.40;;;;;;222484;1265;22724;-52
